Cobden, IL (62920)

4:58 PM CST on February 01, 2015 (GMT -0600)
Hidden River Farms | Change Station
CLOSE
Current Station
Personal Weather Station
Location: Buncombe, IL
Elevation: 466 ft
Nearby Weather Stations

Elev 466 ft 37.47 °N, 89.11 °W | Updated 1 second ago

Overcast
Overcast
46.6 °F
Feels Like 44 °F
N
6.0
Wind Variable Wind from West
Gusts 10.0 mph

Today
High -- | Low -- °F
--% Chance of Precip.
Yesterday
High -- | Low -- °F
Precip. -- in
7:00 AM 5:20 PM
Waxing Gibbous, 96% visible
Pressure 29.66 in
Visibility 10.0 miles
Clouds Mostly Cloudy 1800 ft
Mostly Cloudy 2300 ft
Overcast 4600 ft
Windchill 44 °F
Dew Point 44 °F
Humidity 92%
Rainfall 0.62 in
Snow Depth Not available.
UV 0 out of 12
Pollen .30 out of 12
Air Quality Not available.
Flu Activity Not available.
METAR KMDH 012252Z AUTO 28006KT 10SM BKN018 BKN023 OVC046 08/05 A2966 RMK AO2 SLP044 T00780050

More Conditions Fewer Conditions

Pressure 29.66 in
Visibility 10.0 miles
Clouds Mostly Cloudy 1800 ft
Mostly Cloudy 2300 ft
Overcast 4600 ft
Windchill 44 °F
Dew Point 44 °F
Humidity 92%
Rainfall 0.62 in
Snow Depth Not available.
UV 0 out of 12
Pollen .30 out of 12
Air Quality Not available.
Flu Activity Not available.
METAR KMDH 012252Z AUTO 28006KT 10SM BKN018 BKN023 OVC046 08/05 A2966 RMK AO2 SLP044 T00780050

More Conditions Fewer Conditions

10-Day Weather Forecast

Almanac

Astronomy

Feb. 01, 2015 Rise Set
Actual Time
Civil Twilight
Nautical Twilight
Astronomical Twilight
Moon
Length of Visible Light
Length of Day
Tomorrow will be .
, % of the Moon is Illuminated

Today's Extremes

State Highs State Lows

Community

WunderPhotos

Upload Photos

1,792,581 photos uploaded!

WunderBlogs® & News

Nearby

Air Quality

  Air Quality AQ Index Pollutant
Not available.

Snow Depth

Station Depth Elevation

Earthquake Activity

City Distance Mag. Time & Date
Minimum magnitude displayed is 2.5.

Coastal Water Temperatures

Place Temperature

Nearby Weather Stations